Pagrindinis puslapis
METAR-TAF:

METAR-TAF

Oro uostai :

Yurimaguas, Peru

platuma: 05-54S, ilguma: 076-05W, Aukštis: 179 m

Dabartinis oras

Ataskaita buvo paskelbta 4 valandos ir 26 minutes, ne 23:00 UTC
Vėjas 6 kt iš Rytų/Šiaurės Rytų
Temperatūra 26°C
Drėgmė 84%
Slėgis 1008 hPa
Matomumas 10 km arba daugiau
Mažai debesys ne aukštis 1000 ft
Išsisklaidę debesys ne aukštis 8000 ft

METAR: SPMS 162300Z 06006KT 9999 FEW010 SCT080 26/23 Q1008 RMK BIRD HAZARD RWY 09/27 PP000

Laikas: 22:26 (03:26 UTC)

Prognozė

Ataskaita buvo paskelbta 10 valandos ir 26 minutes, ne 17:00 UTC
Prognozė galioja nuo 16 metu 18 UTC su 17 metu 18 UTC
Vėjas 4 kt iš Šiaurės Vakarų
Matomumas 10 km arba daugiau
Išsisklaidę debesys ne aukštis 1000 ft
Su prošvaistėmis ne aukštis 7000 ft
Laikinai
nuo 17 metu 12 UTC su 17 metu 15 UTC
Matomumas: 5000 m
Su prošvaistėmis ne aukštis 1000 ft
Išsisklaidę debesys ne aukštis 7000 ft
rūkana

TAF: SPMS 161700Z 1618/1718 32004KT 9999 SCT010 BKN070 TX30/1621Z TN24/1711Z TEMPO 1712/1715 5000 BR BKN010 SCT070

Orai ataskaitas ir orų prognozės (METAR, TAF).

turimą stotys yra geltonos ir raudonos taškus žemėlapyje.

Perkelti pele per norėdami pamatyti stoties vardą.

Tada spustelėkite, norėdami matyti oro stebėjimo ir prognozės.

Norėdami pakeisti žemėlapį: spustelėkite ant žalios mygtukų su juodo kryžiaus žemyn,; žalią mygtuką su brūkšneliu, jei norite nutolinti; arba žalių rodyklių gretimoms žemėlapius.


METAR-TAF: